createdAt,value
2022-09-28T00:00:46.648Z,15.78
2022-09-28T00:03:13.793Z,16.34
2022-09-28T00:05:40.622Z,16.82
2022-09-28T00:08:07.555Z,17.27
2022-09-28T00:10:34.245Z,17.07
2022-09-28T00:13:01.838Z,16.75
2022-09-28T00:15:29.222Z,17.02
2022-09-28T00:17:56.324Z,15.78
2022-09-28T00:20:22.991Z,14.66
2022-09-28T00:22:49.738Z,14.13
2022-09-28T00:25:17.065Z,14.46
2022-09-28T00:27:49.342Z,12.68
2022-09-28T00:30:16.715Z,13.10
2022-09-28T00:32:43.857Z,15.79
2022-09-28T00:35:11.377Z,14.63
2022-09-28T00:37:38.226Z,16.31
2022-09-28T00:40:05.545Z,15.66
2022-09-28T00:42:32.246Z,16.98
2022-09-28T00:44:59.729Z,17.45
2022-09-28T00:47:40.507Z,16.54
2022-09-28T00:50:14.790Z,15.88
2022-09-28T00:53:01.891Z,16.77
2022-09-28T00:55:40.629Z,13.83
2022-09-28T00:58:11.795Z,16.47
2022-09-28T01:00:41.126Z,16.49
2022-09-28T01:03:09.641Z,17.32
2022-09-28T01:05:39.403Z,16.90
2022-09-28T01:08:08.125Z,15.00
2022-09-28T01:10:35.039Z,17.22
2022-09-28T01:13:02.016Z,16.08
2022-09-28T01:15:30.486Z,15.70
2022-09-28T01:18:01.706Z,14.74
2022-09-28T01:20:54.047Z,14.37
2022-09-28T01:23:44.584Z,14.81
2022-09-28T01:26:45.173Z,15.31
2022-09-28T01:29:35.326Z,13.64
2022-09-28T01:32:25.338Z,12.45
2022-09-28T01:35:01.546Z,13.96
2022-09-28T01:37:45.339Z,13.45
2022-09-28T01:40:15.035Z,14.38
2022-09-28T01:42:45.134Z,14.99
2022-09-28T01:45:28.676Z,15.40
2022-09-28T01:48:02.971Z,14.27
2022-09-28T01:50:35.433Z,15.99
2022-09-28T01:53:09.641Z,14.12
2022-09-28T01:55:50.387Z,13.43
2022-09-28T01:58:38.796Z,15.58
2022-09-28T02:01:17.440Z,15.65
2022-09-28T02:03:55.759Z,15.51
2022-09-28T02:06:31.957Z,16.88
2022-09-28T02:09:05.546Z,15.77
2022-09-28T02:11:47.326Z,16.42
2022-09-28T02:14:18.127Z,15.82
2022-09-28T02:16:50.422Z,16.83
2022-09-28T02:19:24.707Z,14.99
2022-09-28T02:21:59.012Z,16.67
2022-09-28T02:24:34.786Z,16.79
2022-09-28T02:27:11.446Z,16.20
2022-09-28T02:29:38.225Z,16.63
2022-09-28T02:32:05.297Z,16.93
2022-09-28T02:34:32.986Z,14.78
2022-09-28T02:37:00.111Z,16.26
2022-09-28T02:39:26.941Z,16.22
2022-09-28T02:42:25.787Z,14.77
2022-09-28T02:45:15.610Z,15.79
2022-09-28T02:48:09.326Z,16.45
2022-09-28T02:51:06.263Z,15.76
2022-09-28T02:53:45.110Z,15.78
2022-09-28T02:56:37.626Z,14.25
2022-09-28T02:59:07.574Z,15.84
2022-09-28T03:01:46.582Z,13.43
2022-09-28T03:04:37.683Z,15.27
2022-09-28T03:07:31.270Z,13.51
2022-09-28T03:10:10.729Z,13.43
2022-09-28T03:12:39.246Z,13.51
2022-09-28T03:15:22.993Z,13.74
2022-09-28T03:17:49.830Z,14.53
2022-09-28T03:20:17.692Z,13.96
2022-09-28T03:23:00.277Z,13.53
2022-09-28T03:25:32.222Z,12.70
2022-09-28T03:27:59.359Z,12.71
2022-09-28T03:30:27.089Z,12.64
2022-09-28T03:32:58.806Z,15.00
2022-09-28T03:35:27.118Z,14.25
2022-09-28T03:37:57.282Z,15.25
2022-09-28T03:40:26.159Z,14.25
2022-09-28T03:42:53.993Z,12.41
2022-09-28T03:45:21.005Z,14.96
2022-09-28T03:47:49.949Z,16.25
2022-09-28T03:50:18.487Z,14.77
2022-09-28T03:52:45.230Z,16.19
2022-09-28T03:55:12.177Z,16.13
2022-09-28T03:57:38.913Z,16.51
2022-09-28T04:00:06.368Z,16.09
2022-09-28T04:02:40.705Z,15.91
2022-09-28T04:05:09.391Z,15.75
2022-09-28T04:07:37.629Z,16.34
2022-09-28T04:10:05.016Z,13.93
2022-09-28T04:12:32.194Z,15.38
2022-09-28T04:14:58.885Z,15.74
2022-09-28T04:17:25.823Z,15.81
2022-09-28T04:19:52.841Z,14.06
2022-09-28T04:22:37.739Z,14.22
2022-09-28T04:25:05.141Z,15.98
2022-09-28T04:27:50.490Z,14.89
2022-09-28T04:30:18.111Z,14.78
2022-09-28T04:32:49.167Z,15.43
2022-09-28T04:35:16.747Z,15.35
2022-09-28T04:37:43.773Z,15.34
2022-09-28T04:40:11.299Z,15.30
2022-09-28T04:42:38.234Z,13.97
2022-09-28T04:45:05.790Z,14.77
2022-09-28T04:47:35.919Z,12.63
2022-09-28T04:50:28.956Z,13.54
2022-09-28T04:53:14.397Z,15.02
2022-09-28T04:55:41.338Z,14.75
2022-09-28T04:58:08.075Z,13.69
2022-09-28T05:00:35.211Z,14.14
2022-09-28T05:03:28.290Z,15.79
2022-09-28T05:06:15.677Z,13.63
2022-09-28T05:08:47.275Z,15.19
2022-09-28T05:11:15.485Z,13.93
2022-09-28T05:13:45.494Z,14.43
2022-09-28T05:16:20.429Z,14.66
2022-09-28T05:19:16.220Z,13.06
2022-09-28T05:21:46.915Z,14.61
2022-09-28T05:24:13.811Z,14.36
2022-09-28T05:26:44.530Z,16.34
2022-09-28T05:29:11.563Z,14.32
2022-09-28T05:31:57.198Z,13.15
2022-09-28T05:34:35.254Z,15.46
2022-09-28T05:37:02.050Z,16.98
2022-09-28T05:39:30.686Z,16.70
2022-09-28T05:41:58.039Z,14.68
2022-09-28T05:44:25.968Z,13.78
2022-09-28T05:46:54.736Z,16.00
2022-09-28T05:49:23.052Z,15.79
2022-09-28T05:51:49.743Z,16.36
2022-09-28T05:54:16.720Z,16.50
2022-09-28T05:56:46.259Z,15.98
2022-09-28T05:59:13.598Z,14.81
2022-09-28T06:01:41.286Z,15.20
2022-09-28T06:04:10.226Z,16.45
2022-09-28T06:06:38.459Z,16.04
2022-09-28T06:09:05.436Z,13.84
2022-09-28T06:12:05.597Z,15.97
2022-09-28T06:14:39.715Z,16.88
2022-09-28T06:17:06.529Z,14.70
2022-09-28T06:19:33.402Z,15.99
2022-09-28T06:22:18.667Z,15.91
2022-09-28T06:24:55.058Z,15.90
2022-09-28T06:27:24.028Z,15.31
2022-09-28T06:29:50.982Z,15.99
2022-09-28T06:32:17.795Z,16.16
2022-09-28T06:34:47.674Z,16.07
2022-09-28T06:37:14.435Z,14.93
2022-09-28T06:39:41.626Z,15.34
2022-09-28T06:42:08.345Z,16.76
2022-09-28T06:44:53.579Z,16.34
2022-09-28T06:47:37.783Z,15.47
2022-09-28T06:50:16.495Z,15.03
2022-09-28T06:52:54.222Z,15.71
2022-09-28T06:55:43.025Z,14.13
2022-09-28T06:58:12.162Z,13.85
2022-09-28T07:00:40.045Z,12.81
2022-09-28T07:03:11.593Z,13.91
2022-09-28T07:06:04.954Z,13.45
2022-09-28T07:08:37.616Z,14.37
2022-09-28T07:11:26.839Z,16.11
2022-09-28T07:14:22.237Z,17.14
2022-09-28T07:17:12.313Z,16.31
2022-09-28T07:19:39.894Z,14.96
2022-09-28T07:22:06.634Z,14.15
2022-09-28T07:24:33.649Z,15.31
2022-09-28T07:27:39.674Z,15.90
2022-09-28T07:30:15.743Z,15.55
2022-09-28T07:33:14.659Z,14.06
2022-09-28T07:35:55.637Z,13.92
2022-09-28T07:38:27.111Z,13.67
2022-09-28T07:41:11.912Z,13.72
2022-09-28T07:43:44.055Z,13.99
2022-09-28T07:46:14.864Z,13.39
2022-09-28T07:48:51.706Z,13.43
2022-09-28T07:51:38.753Z,12.37
2022-09-28T07:54:17.945Z,13.63
2022-09-28T07:57:03.253Z,12.95
2022-09-28T07:59:50.666Z,13.33
2022-09-28T08:02:43.356Z,13.75
2022-09-28T08:05:12.532Z,14.46
2022-09-28T08:07:39.361Z,14.82
2022-09-28T08:10:09.534Z,14.52
2022-09-28T08:13:06.374Z,12.98
2022-09-28T08:15:54.702Z,14.15
2022-09-28T08:18:35.357Z,13.00
2022-09-28T08:21:23.222Z,14.46
2022-09-28T08:23:50.681Z,14.97
2022-09-28T08:26:17.645Z,15.03
2022-09-28T08:28:46.976Z,14.86
2022-09-28T08:31:42.508Z,15.79
2022-09-28T08:34:44.367Z,17.69
2022-09-28T08:37:27.749Z,12.35
2022-09-28T08:40:24.623Z,15.39
2022-09-28T08:43:48.247Z,13.82
2022-09-28T08:46:48.073Z,15.09
2022-09-28T08:49:36.909Z,13.16
2022-09-28T08:52:23.659Z,12.45
2022-09-28T08:55:20.032Z,15.19
2022-09-28T08:57:54.265Z,12.96
2022-09-28T09:00:46.211Z,13.38
2022-09-28T09:03:17.488Z,13.21
2022-09-28T09:06:29.797Z,13.99
2022-09-28T09:09:27.233Z,15.31
2022-09-28T09:12:18.166Z,13.46
2022-09-28T09:14:50.931Z,14.16
2022-09-28T09:17:42.163Z,14.89
2022-09-28T09:20:35.874Z,12.61
2022-09-28T09:23:15.340Z,15.17
2022-09-28T09:25:47.018Z,14.23
2022-09-28T09:28:19.886Z,14.84
2022-09-28T09:31:06.116Z,15.70
2022-09-28T09:34:17.884Z,15.71
2022-09-28T09:37:02.273Z,15.51
2022-09-28T09:40:02.498Z,14.89
2022-09-28T09:43:05.757Z,15.14
2022-09-28T09:46:11.910Z,14.58
2022-09-28T09:49:03.923Z,16.45
2022-09-28T09:51:37.072Z,15.76
2022-09-28T09:54:13.631Z,15.80
2022-09-28T09:57:22.111Z,16.01
2022-09-28T10:00:15.811Z,17.00
2022-09-28T10:02:54.158Z,14.81
2022-09-28T10:05:36.060Z,16.22
2022-09-28T10:08:08.898Z,15.97
2022-09-28T10:10:40.712Z,15.21
2022-09-28T10:13:10.222Z,17.24
2022-09-28T10:15:39.778Z,16.25
2022-09-28T10:18:21.108Z,17.06
2022-09-28T10:21:06.401Z,17.68
2022-09-28T10:23:59.385Z,15.74
2022-09-28T10:26:35.787Z,15.34
2022-09-28T10:29:16.234Z,17.84
2022-09-28T10:31:49.526Z,14.73
2022-09-28T10:34:29.535Z,16.03
2022-09-28T10:37:04.019Z,13.47
2022-09-28T10:39:55.350Z,12.99
2022-09-28T10:42:27.634Z,16.24
2022-09-28T10:44:57.406Z,17.00
2022-09-28T10:47:45.095Z,16.87
2022-09-28T10:50:26.690Z,15.37
2022-09-28T10:53:22.241Z,15.21
2022-09-28T10:56:28.945Z,16.90
2022-09-28T10:59:24.255Z,14.25
2022-09-28T11:01:57.576Z,13.78
2022-09-28T11:04:27.802Z,16.78
2022-09-28T11:09:30.872Z,16.75
2022-09-28T11:12:05.940Z,15.25
2022-09-28T11:14:42.195Z,15.63
2022-09-28T11:17:32.726Z,15.31
2022-09-28T11:20:27.825Z,16.23
2022-09-28T11:23:00.734Z,15.96
2022-09-28T11:25:32.777Z,17.32
2022-09-28T11:28:04.852Z,16.87
2022-09-28T11:30:34.198Z,16.78
2022-09-28T11:33:35.192Z,16.11
2022-09-28T11:36:46.210Z,17.44
2022-09-28T11:39:19.426Z,15.88
2022-09-28T11:41:54.324Z,17.89
2022-09-28T11:44:31.020Z,17.86
2022-09-28T11:47:28.594Z,17.47
2022-09-28T11:50:24.019Z,18.75
2022-09-28T11:52:54.790Z,18.87
2022-09-28T11:55:21.584Z,16.13
2022-09-28T11:58:08.658Z,17.26
2022-09-28T12:00:42.475Z,17.84
2022-09-28T12:03:25.227Z,18.91
2022-09-28T12:06:01.034Z,16.88
2022-09-28T12:08:31.952Z,17.82
2022-09-28T12:11:18.345Z,17.88
2022-09-28T12:14:28.730Z,15.37
2022-09-28T12:17:07.881Z,17.24
2022-09-28T12:19:48.730Z,14.72
2022-09-28T12:22:22.245Z,15.72
2022-09-28T12:24:56.644Z,16.42
2022-09-28T12:27:44.610Z,18.49
2022-09-28T12:30:22.307Z,19.28
2022-09-28T12:33:12.342Z,16.95
2022-09-28T12:35:57.702Z,18.67
2022-09-28T12:38:43.326Z,18.71
2022-09-28T12:41:32.444Z,16.92
2022-09-28T12:44:17.620Z,19.50
2022-09-28T12:47:25.913Z,20.01
2022-09-28T12:53:30.689Z,20.32
2022-09-28T12:56:11.795Z,17.84
2022-09-28T12:59:01.155Z,16.83
2022-09-28T13:02:09.786Z,15.89
2022-09-28T13:05:02.124Z,18.36
2022-09-28T13:07:58.057Z,19.00
2022-09-28T13:10:36.337Z,19.67
2022-09-28T13:13:12.232Z,18.63
2022-09-28T13:15:45.202Z,17.93
2022-09-28T13:18:11.896Z,17.86
2022-09-28T13:20:47.831Z,16.08
2022-09-28T13:23:33.376Z,17.03
2022-09-28T13:26:14.021Z,18.67
2022-09-28T13:28:43.391Z,17.87
2022-09-28T13:31:11.484Z,17.61
2022-09-28T13:33:45.111Z,17.28
2022-09-28T13:36:33.057Z,20.42
2022-09-28T13:39:01.106Z,17.48
2022-09-28T13:41:47.431Z,19.27
2022-09-28T13:44:16.509Z,20.07
2022-09-28T13:47:01.532Z,19.87
2022-09-28T13:49:45.517Z,19.08
2022-09-28T13:52:31.544Z,18.54
2022-09-28T13:55:19.531Z,17.66
2022-09-28T13:57:56.765Z,19.62
2022-09-28T14:00:45.609Z,19.47
2022-09-28T14:03:15.162Z,17.32
2022-09-28T14:06:00.743Z,18.26
2022-09-28T14:08:34.866Z,19.19
2022-09-28T14:11:34.421Z,18.70
2022-09-28T14:14:08.718Z,18.84
2022-09-28T14:16:36.968Z,18.61
2022-09-28T14:19:16.403Z,18.06
2022-09-28T14:21:55.193Z,18.92
2022-09-28T14:25:14.262Z,16.91
2022-09-28T14:27:53.197Z,19.59
2022-09-28T14:30:23.861Z,19.39
2022-09-28T14:32:56.921Z,18.63
2022-09-28T14:35:46.351Z,16.45
2022-09-28T14:38:36.145Z,15.86
2022-09-28T14:41:10.543Z,17.34
2022-09-28T14:43:57.619Z,18.15
2022-09-28T14:46:31.999Z,18.00
2022-09-28T14:49:04.139Z,15.17
2022-09-28T14:51:31.071Z,16.58
2022-09-28T14:54:12.889Z,15.40
2022-09-28T14:56:44.289Z,15.53
2022-09-28T14:59:36.084Z,14.51
2022-09-28T15:02:12.480Z,15.00
2022-09-28T15:05:08.788Z,16.55
2022-09-28T15:07:51.025Z,15.73
2022-09-28T15:10:28.335Z,16.26
2022-09-28T15:12:56.884Z,14.09
2022-09-28T15:15:40.223Z,15.34
2022-09-28T15:18:20.045Z,16.43
2022-09-28T15:20:49.104Z,16.63
2022-09-28T15:23:39.214Z,14.78
2022-09-28T15:26:18.473Z,15.01
2022-09-28T15:28:45.244Z,16.56
2022-09-28T15:31:19.605Z,17.08
2022-09-28T15:34:06.248Z,14.43
2022-09-28T15:36:46.642Z,14.51
2022-09-28T15:39:19.195Z,17.28
2022-09-28T15:41:48.482Z,15.80
2022-09-28T15:44:33.249Z,16.46
2022-09-28T15:47:15.396Z,15.87
2022-09-28T15:49:50.903Z,15.80
2022-09-28T15:52:26.768Z,15.35
2022-09-28T15:54:54.212Z,17.33
2022-09-28T15:57:47.629Z,16.41
2022-09-28T16:00:20.778Z,15.84
2022-09-28T16:03:16.828Z,15.93
2022-09-28T16:05:46.975Z,16.84
2022-09-28T16:08:24.280Z,16.51
2022-09-28T16:11:03.037Z,17.76
2022-09-28T16:13:30.405Z,17.91
2022-09-28T16:15:59.861Z,17.31
2022-09-28T16:18:29.328Z,17.97
2022-09-28T16:21:17.438Z,17.68
2022-09-28T16:23:51.947Z,16.89
2022-09-28T16:26:31.428Z,17.85
2022-09-28T16:28:58.693Z,17.23
2022-09-28T16:31:33.818Z,16.15
2022-09-28T16:34:10.826Z,15.85
2022-09-28T16:36:47.332Z,15.48
2022-09-28T16:39:19.049Z,15.91
2022-09-28T16:41:52.067Z,16.96
2022-09-28T16:44:28.695Z,17.22
2022-09-28T16:46:58.461Z,18.65
2022-09-28T16:49:25.678Z,18.47
2022-09-28T16:51:52.881Z,17.85
2022-09-28T16:54:42.719Z,18.51
2022-09-28T16:57:12.504Z,17.51
2022-09-28T16:59:39.707Z,18.01
2022-09-28T17:02:42.118Z,17.70
2022-09-28T17:05:07.406Z,17.92
2022-09-28T17:07:34.631Z,16.59
2022-09-28T17:10:01.477Z,17.21
2022-09-28T17:12:28.946Z,17.30
2022-09-28T17:14:56.033Z,17.80
2022-09-28T17:17:22.998Z,18.43
2022-09-28T17:19:49.664Z,18.08
2022-09-28T17:22:16.883Z,17.94
2022-09-28T17:24:45.580Z,18.23
2022-09-28T17:27:18.924Z,17.12
2022-09-28T17:29:45.862Z,17.72
2022-09-28T17:32:18.113Z,17.36
2022-09-28T17:34:51.569Z,17.53
2022-09-28T17:37:22.911Z,18.13
2022-09-28T17:39:49.635Z,16.58
2022-09-28T17:42:17.287Z,17.49
2022-09-28T17:44:43.979Z,17.38
2022-09-28T17:47:11.641Z,17.57
2022-09-28T17:49:38.895Z,17.70
2022-09-28T17:52:05.832Z,17.77
2022-09-28T17:54:33.966Z,17.61
2022-09-28T17:57:00.896Z,18.07
2022-09-28T17:59:28.719Z,17.89
2022-09-28T18:01:58.322Z,17.36
2022-09-28T18:04:50.911Z,18.21
2022-09-28T18:07:13.830Z,17.76
2022-09-28T18:09:40.534Z,16.93
2022-09-28T18:12:07.848Z,16.64
2022-09-28T18:14:36.059Z,17.19
2022-09-28T18:17:03.131Z,17.22
2022-09-28T18:19:32.131Z,17.07
2022-09-28T18:21:59.297Z,17.34
2022-09-28T18:24:26.383Z,17.61
2022-09-28T18:26:53.453Z,16.07
2022-09-28T18:29:20.184Z,14.72
2022-09-28T18:31:48.794Z,16.27
2022-09-28T18:34:15.629Z,17.55
2022-09-28T18:36:42.346Z,17.87
2022-09-28T18:39:09.207Z,16.65
2022-09-28T18:41:36.092Z,17.54
2022-09-28T18:44:02.927Z,17.64
2022-09-28T18:46:34.687Z,15.33
2022-09-28T18:49:01.959Z,16.70
2022-09-28T18:51:28.770Z,16.24
2022-09-28T18:53:55.965Z,16.19
2022-09-28T18:56:22.741Z,16.73
2022-09-28T18:58:52.802Z,18.00
2022-09-28T19:01:36.512Z,16.36
2022-09-28T19:04:05.877Z,16.21
2022-09-28T19:06:34.440Z,16.97
2022-09-28T19:09:01.479Z,18.03
2022-09-28T19:11:28.892Z,16.27
2022-09-28T19:13:56.206Z,16.93
2022-09-28T19:16:28.795Z,16.71
2022-09-28T19:19:00.929Z,16.13
2022-09-28T19:21:27.840Z,16.95
2022-09-28T19:23:55.759Z,17.18
2022-09-28T19:26:27.561Z,16.93
2022-09-28T19:28:56.880Z,16.99
2022-09-28T19:31:24.427Z,16.90
2022-09-28T19:33:51.139Z,16.69
2022-09-28T19:36:21.881Z,15.07
2022-09-28T19:38:48.596Z,13.29
2022-09-28T19:41:43.792Z,15.04
2022-09-28T19:44:25.897Z,15.95
2022-09-28T19:47:08.042Z,16.53
2022-09-28T19:49:37.108Z,14.85
2022-09-28T19:52:15.855Z,15.70
2022-09-28T19:54:57.547Z,16.63
2022-09-28T19:57:35.114Z,16.96
2022-09-28T20:00:03.717Z,15.95
2022-09-28T20:02:34.694Z,16.34
2022-09-28T20:05:01.791Z,16.83
2022-09-28T20:07:32.803Z,15.36
2022-09-28T20:09:59.698Z,15.10
2022-09-28T20:12:26.499Z,14.78
2022-09-28T20:14:53.194Z,14.81
2022-09-28T20:17:21.892Z,14.92
2022-09-28T20:19:51.899Z,14.26
2022-09-28T20:22:19.980Z,14.47
2022-09-28T20:24:46.746Z,15.49
2022-09-28T20:27:13.406Z,15.22
2022-09-28T20:29:40.142Z,14.29
2022-09-28T20:32:06.905Z,13.51
2022-09-28T20:34:34.035Z,14.82
2022-09-28T20:37:00.758Z,15.49
2022-09-28T20:39:27.660Z,16.96
2022-09-28T20:41:55.066Z,14.47
2022-09-28T20:44:21.933Z,16.37
2022-09-28T20:46:52.241Z,17.28
2022-09-28T20:49:18.977Z,17.16
2022-09-28T20:51:45.735Z,16.96
2022-09-28T20:54:12.738Z,15.29
2022-09-28T20:56:39.743Z,16.38
2022-09-28T20:59:12.569Z,16.03
2022-09-28T21:01:40.518Z,15.02
2022-09-28T21:04:08.954Z,16.63
2022-09-28T21:06:38.007Z,16.60
2022-09-28T21:09:06.835Z,16.69
2022-09-28T21:11:35.690Z,16.26
2022-09-28T21:14:04.624Z,16.50
2022-09-28T21:16:33.058Z,16.43
2022-09-28T21:19:00.091Z,17.94
2022-09-28T21:21:27.565Z,18.08
2022-09-28T21:23:55.608Z,17.32
2022-09-28T21:26:24.930Z,17.32
2022-09-28T21:28:59.969Z,17.90
2022-09-28T21:31:32.777Z,17.23
2022-09-28T21:33:59.704Z,17.14
2022-09-28T21:36:27.383Z,17.79
2022-09-28T21:38:55.574Z,17.56
2022-09-28T21:41:25.521Z,18.02
2022-09-28T21:43:52.426Z,17.46
2022-09-28T21:46:19.343Z,17.68
2022-09-28T21:48:46.286Z,17.93
2022-09-28T21:51:14.789Z,18.03
2022-09-28T21:53:42.872Z,17.37
2022-09-28T21:56:12.820Z,17.77
2022-09-28T21:58:40.188Z,16.91
2022-09-28T22:01:13.137Z,17.76
2022-09-28T22:03:41.109Z,17.88
2022-09-28T22:06:08.691Z,17.55
2022-09-28T22:08:36.666Z,17.45
2022-09-28T22:11:05.753Z,13.75
2022-09-28T22:13:39.886Z,15.36
2022-09-28T22:16:07.614Z,15.30
2022-09-28T22:18:34.653Z,16.61
2022-09-28T22:21:09.121Z,14.81
2022-09-28T22:23:37.073Z,15.81
2022-09-28T22:26:03.764Z,15.73
2022-09-28T22:28:30.877Z,15.26
2022-09-28T22:30:58.314Z,16.48
2022-09-28T22:33:25.938Z,15.17
2022-09-28T22:35:53.382Z,15.01
2022-09-28T22:38:21.359Z,15.80
2022-09-28T22:40:54.375Z,15.86
2022-09-28T22:43:23.511Z,17.00
2022-09-28T22:45:50.690Z,13.16
2022-09-28T22:48:17.361Z,13.67
2022-09-28T22:50:50.819Z,15.07
2022-09-28T22:53:18.147Z,16.76
2022-09-28T22:55:44.869Z,16.98
2022-09-28T22:58:12.255Z,16.08
2022-09-28T23:00:39.580Z,15.23
2022-09-28T23:03:06.464Z,16.62
2022-09-28T23:05:33.433Z,17.06
2022-09-28T23:08:00.305Z,17.07
2022-09-28T23:10:27.391Z,17.13
2022-09-28T23:12:54.899Z,17.35
2022-09-28T23:15:22.937Z,17.53
2022-09-28T23:17:53.477Z,16.85
2022-09-28T23:20:24.125Z,17.68
2022-09-28T23:22:51.133Z,16.61
2022-09-28T23:25:19.650Z,17.20
2022-09-28T23:27:47.763Z,17.77
2022-09-28T23:30:16.153Z,16.96
2022-09-28T23:32:43.221Z,16.77
2022-09-28T23:35:10.834Z,15.86
2022-09-28T23:37:38.004Z,16.60
2022-09-28T23:40:06.163Z,17.25
2022-09-28T23:42:35.500Z,16.27
2022-09-28T23:45:02.288Z,16.48
2022-09-28T23:47:28.986Z,17.17
2022-09-28T23:49:55.816Z,17.19
2022-09-28T23:52:22.734Z,17.53
2022-09-28T23:54:49.462Z,17.37
2022-09-28T23:57:16.153Z,18.52
2022-09-28T23:59:42.829Z,17.28
